Ginys del Meteocat
Campanya meteocatpedra

Dades de l'estació automàtica Barcelona - Zona Universitària

?
?
Resum diari 22:30 TU
Dades diàries de l'estació meteorològica
Temperatura mitjana 16.4 °C
Temperatura màxima 18.7 °C 12:19 TU
Temperatura mínima 14.4 °C 6:47 TU
Humitat relativa mitjana 74%
Precipitació acumulada 0.1 mm
Ratxa màxima del vent (10 m) 32.4 km/h - 307º 1:38 TU
Pressió atmosfèrica mitjana 1016.9 hPa
Irradiació solar global 2.9 MJ/m2

El tram horari està expressat en Temps Universal (TU). Cal sumar una hora en horari d'hivern i dues en horari d'estiu per passar a l'hora oficial.

Barcelona - Zona Universitària

Metadades estació meteorol´gica
Municipi Barcelona
Comarca Barcelonès
Altitud 79 m
Data alta 17.04.2008
Estat actual Operativa
Dades de període
Període
TU
TM
°C
TX
°C
TN
°C
HRM
%
PPT
mm
VVM (10 m)
km/h
DVM (10 m)
graus
VVX (10 m)
km/h
PM
hPa
RS
W/m2
00:00 - 00:30 16.5 16.8 16.1 75 0.0 8.3 309 18.7 1013.6 0
00:30 - 01:00 16.1 16.6 15.8 77 0.0 14.8 299 24.8 1013.6 0
01:00 - 01:30 15.6 15.8 15.5 78 0.0 17.3 294 26.6 1013.5 0
01:30 - 02:00 16.0 16.3 15.5 73 0.0 17.6 301 32.4 1013.6 0
02:00 - 02:30 15.7 16.1 15.5 73 0.0 12.2 300 28.1 1013.6 0
02:30 - 03:00 15.8 16.2 15.5 72 0.0 10.1 299 21.2 1013.9 0
03:00 - 03:30 16.3 17.0 15.7 67 0.0 9.0 314 22.0 1014.1 0
03:30 - 04:00 15.9 16.8 15.4 68 0.0 4.3 256 13.3 1014.0 0
04:00 - 04:30 15.1 15.5 14.7 71 0.0 4.3 274 14.8 1013.9 0
04:30 - 05:00 14.9 15.1 14.8 74 0.0 4.0 250 14.8 1014.4 0
05:00 - 05:30 14.8 15.0 14.6 75 0.0 2.9 296 8.6 1014.8 0
05:30 - 06:00 14.8 14.9 14.7 74 0.0 4.3 286 13.7 1015.1 0
06:00 - 06:30 14.8 14.9 14.6 72 0.0 1.8 274 4.3 1015.2 0
06:30 - 07:00 14.7 14.9 14.4 74 0.0 2.5 213 6.5 1015.3 7
07:00 - 07:30 15.2 15.4 14.9 71 0.0 6.1 261 17.3 1016.0 41
07:30 - 08:00 15.9 16.2 15.2 71 0.0 2.5 267 7.2 1016.1 87
08:00 - 08:30 16.2 16.4 16.1 71 0.0 4.3 236 14.8 1016.7 94
08:30 - 09:00 16.2 17.1 15.7 72 0.0 4.3 310 17.3 1017.1 104
09:00 - 09:30 17.1 17.3 16.7 70 0.0 5.4 278 16.9 1017.6 114
09:30 - 10:00 16.7 16.9 16.6 71 0.0 4.7 270 14.0 1018.1 85
10:00 - 10:30 17.1 17.4 16.9 70 0.0 7.9 41 17.6 1017.3 74
10:30 - 11:00 16.8 17.2 16.5 70 0.0 5.4 305 15.5 1017.8 82
11:00 - 11:30 16.8 17.1 16.6 69 0.0 3.6 300 17.3 1018.2 71
11:30 - 12:00 17.3 17.7 17.1 71 0.0 5.0 10 17.3 1017.8 103
12:00 - 12:30 18.4 18.7 17.7 67 0.0 5.0 53 17.3 1017.4 291
12:30 - 13:00 18.6 18.7 18.5 67 0.0 4.3 83 10.8 1017.4 179
13:00 - 13:30 18.0 18.4 17.8 70 0.0 8.6 86 17.6 1017.4 74
13:30 - 14:00 17.7 17.8 17.7 74 0.0 6.8 67 13.7 1017.7 56
14:00 - 14:30 18.0 18.2 17.9 74 0.0 3.6 58 10.4 1017.7 63
14:30 - 15:00 18.1 18.3 18.0 75 0.0 4.7 129 11.9 1017.8 48
15:00 - 15:30 17.8 18.1 17.7 76 0.0 8.3 169 16.9 1017.6 40
15:30 - 16:00 17.6 17.7 17.4 75 0.0 8.3 172 19.8 1017.9 20
16:00 - 16:30 17.4 17.5 17.3 73 0.0 6.8 157 13.3 1018.0 17
16:30 - 17:00 17.2 17.4 17.2 69 0.0 7.6 160 16.9 1018.3 2
17:00 - 17:30 17.0 17.2 16.8 67 0.0 2.5 122 7.6 1018.5 0
17:30 - 18:00 16.8 16.8 16.6 69 0.0 2.9 146 6.5 1018.6 0
18:00 - 18:30 16.7 16.7 16.6 71 0.0 5.4 147 11.9 1018.7 0
18:30 - 19:00 16.7 16.8 16.7 70 0.0 4.0 129 8.3 1018.9 0
19:00 - 19:30 16.7 16.9 16.6 70 0.0 5.4 120 11.9 1019.0 0
19:30 - 20:00 16.8 16.9 16.4 73 0.0 6.1 93 13.7 1019.1 0
20:00 - 20:30 16.3 16.3 16.1 83 0.1 5.4 47 13.0 1019.0 0
20:30 - 21:00 16.1 16.1 16.1 85 0.0 8.3 37 14.4 1018.9 0
21:00 - 21:30 16.0 16.1 16.0 84 0.0 5.8 41 13.7 1019.1 0
21:30 - 22:00 15.7 15.9 15.6 87 0.0 5.8 40 11.5 1019.1 0
22:00 - 22:30 15.7 15.8 15.6 85 0.0 6.5 30 14.8 1018.8 0
22:30 - 23:00 15.6 15.7 15.5 83 0.0 4.0 9 7.9 1018.8 0
23:00 - 23:30 15.5 15.7 15.3 80 0.0 3.2 44 7.9 1018.5 0

Les dades en taronja només han passat un control de qualitat automàtic. Resta pendent la seva validació definitiva.